Time;durP1;ratioP1;P1;durP2;ratioP2;P2;SDS_P1;SDS_P2;PMS_P1;PMS_P2;Temp;Humidity;BMP_temperature;BMP_pressure;BME280_temperature;BME280_humidity;BME280_pressure;Samples;Min_cycle;Max_cycle;Signal;HPM_P1;HPM_P2
2022/07/27 00:00:29;;;;;;;3.33;1.02;;;16.10;99.90;;;;;;5053389;28;20021;-59
2022/07/27 00:02:55;;;;;;;9.73;1.70;;;16.10;99.90;;;;;;5071283;28;20027;-60
2022/07/27 00:05:22;;;;;;;5.82;1.52;;;16.10;99.90;;;;;;5071036;28;20025;-59
2022/07/27 00:07:48;;;;;;;3.72;1.60;;;16.10;99.90;;;;;;5071354;28;20108;-59
2022/07/27 00:10:15;;;;;;;6.53;1.60;;;16.00;99.90;;;;;;5071262;28;20112;-59
2022/07/27 00:12:40;;;;;;;3.25;1.70;;;16.00;99.90;;;;;;5070135;28;20332;-58
2022/07/27 00:15:07;;;;;;;6.35;1.48;;;16.00;99.90;;;;;;5071254;28;20601;-58
2022/07/27 00:17:33;;;;;;;5.57;1.30;;;16.00;99.90;;;;;;5071198;28;20028;-59
2022/07/27 00:19:58;;;;;;;3.97;1.33;;;16.00;99.90;;;;;;5071111;28;20085;-60
2022/07/27 00:22:24;;;;;;;4.22;1.50;;;16.00;99.90;;;;;;5070992;28;20030;-58
2022/07/27 00:24:49;;;;;;;4.65;1.35;;;16.00;99.90;;;;;;5071127;28;20127;-58
2022/07/27 00:27:15;;;;;;;5.72;1.83;;;16.00;99.90;;;;;;5071076;28;20403;-58
2022/07/27 00:29:41;;;;;;;5.40;1.73;;;16.00;99.90;;;;;;5071384;28;20063;-59
2022/07/27 00:32:08;;;;;;;4.93;1.48;;;16.10;99.90;;;;;;5071087;28;20445;-59
2022/07/27 00:34:34;;;;;;;4.45;1.85;;;16.00;99.90;;;;;;5070932;28;20023;-58
2022/07/27 00:37:00;;;;;;;8.43;1.88;;;16.00;99.90;;;;;;5069761;28;20028;-59
2022/07/27 00:39:25;;;;;;;4.28;1.77;;;16.00;99.90;;;;;;5071006;28;20017;-58
2022/07/27 00:41:51;;;;;;;5.45;1.50;;;16.00;99.90;;;;;;5070798;28;20466;-59
2022/07/27 00:44:28;;;;;;;6.65;1.52;;;15.90;99.90;;;;;;5069320;28;20028;-59
2022/07/27 00:46:54;;;;;;;4.95;1.40;;;15.90;99.90;;;;;;5069241;28;20127;-58
2022/07/27 00:49:20;;;;;;;7.82;1.80;;;15.90;99.90;;;;;;5071088;28;20070;-60
2022/07/27 00:51:46;;;;;;;7.32;1.80;;;15.90;99.90;;;;;;5070990;28;20033;-59
2022/07/27 00:54:12;;;;;;;6.10;1.70;;;15.80;99.90;;;;;;5070610;28;20020;-59
2022/07/27 00:56:38;;;;;;;3.88;1.80;;;15.80;99.90;;;;;;5070701;28;20124;-59
2022/07/27 00:59:06;;;;;;;6.15;1.50;;;15.80;99.90;;;;;;5070826;28;20577;-58
2022/07/27 01:01:32;;;;;;;8.00;1.80;;;15.70;99.90;;;;;;5070631;28;20029;-58
2022/07/27 01:03:58;;;;;;;5.90;1.58;;;15.70;99.90;;;;;;5070644;28;20032;-59
2022/07/27 01:06:24;;;;;;;6.45;1.60;;;15.70;99.90;;;;;;5070526;28;20024;-58
2022/07/27 01:08:50;;;;;;;4.13;1.80;;;15.60;99.90;;;;;;5070704;28;20025;-58
2022/07/27 01:11:16;;;;;;;6.80;1.80;;;15.60;99.90;;;;;;5070699;28;20154;-58
2022/07/27 01:13:42;;;;;;;4.07;1.65;;;15.60;99.90;;;;;;5070440;28;20055;-58
2022/07/27 01:16:08;;;;;;;3.83;1.67;;;15.60;99.90;;;;;;5070524;28;20039;-58
2022/07/27 01:18:38;;;;;;;4.97;1.58;;;15.60;99.90;;;;;;5070909;28;20021;-58
2022/07/27 01:21:07;;;;;;;6.03;1.60;;;15.50;99.90;;;;;;5070728;28;20021;-58
2022/07/27 01:23:33;;;;;;;4.78;1.65;;;15.50;99.90;;;;;;5070348;28;20021;-58
2022/07/27 01:26:01;;;;;;;9.38;2.20;;;15.40;99.90;;;;;;5070456;28;20035;-58
2022/07/27 01:28:27;;;;;;;7.25;2.40;;;15.40;99.90;;;;;;5069301;28;20056;-58
2022/07/27 01:30:54;;;;;;;4.85;1.90;;;15.50;99.90;;;;;;5072055;28;20037;-58
2022/07/27 01:33:24;;;;;;;5.75;1.92;;;15.40;99.90;;;;;;5073856;28;20020;-58
2022/07/27 01:35:54;;;;;;;4.70;1.70;;;15.40;99.90;;;;;;5073781;28;20052;-58
2022/07/27 01:38:20;;;;;;;6.80;1.85;;;15.40;99.90;;;;;;5074255;28;20025;-59
2022/07/27 01:40:46;;;;;;;5.05;2.20;;;15.40;99.90;;;;;;5074136;28;20299;-59
2022/07/27 01:43:12;;;;;;;3.38;1.83;;;15.30;99.90;;;;;;5073831;28;20039;-58
2022/07/27 01:45:38;;;;;;;5.57;2.03;;;15.30;99.90;;;;;;5073644;28;20036;-58
2022/07/27 01:48:04;;;;;;;4.57;2.13;;;15.20;99.90;;;;;;5074088;28;20021;-58
2022/07/27 01:50:30;;;;;;;6.82;2.13;;;15.20;99.90;;;;;;5073671;28;20488;-58
2022/07/27 01:52:56;;;;;;;9.02;2.38;;;15.20;99.90;;;;;;5073746;28;20017;-58
2022/07/27 01:55:22;;;;;;;7.00;2.10;;;15.10;99.90;;;;;;5073689;28;20028;-58
2022/07/27 01:57:48;;;;;;;5.32;2.20;;;15.10;99.90;;;;;;5073657;28;20036;-58
2022/07/27 02:00:14;;;;;;;9.25;1.92;;;15.00;99.90;;;;;;5074634;28;20069;-58
2022/07/27 02:02:40;;;;;;;6.57;2.13;;;15.00;99.90;;;;;;5073628;28;20515;-58
2022/07/27 02:05:07;;;;;;;8.48;2.10;;;14.90;99.90;;;;;;5073859;28;20051;-58
2022/07/27 02:07:33;;;;;;;5.55;2.22;;;14.90;99.90;;;;;;5073443;28;20419;-58
2022/07/27 02:09:58;;;;;;;7.50;2.15;;;14.90;99.90;;;;;;5073577;28;20096;-59
2022/07/27 02:12:36;;;;;;;5.10;2.40;;;14.90;99.90;;;;;;5073208;28;20047;-58
2022/07/27 02:15:13;;;;;;;5.65;2.15;;;14.90;99.90;;;;;;5073305;28;20031;-58
2022/07/27 02:17:39;;;;;;;3.17;2.20;;;14.90;99.90;;;;;;5073347;28;20025;-59
2022/07/27 02:20:07;;;;;;;5.53;2.22;;;14.90;99.90;;;;;;5073072;28;20431;-58
2022/07/27 02:22:33;;;;;;;8.25;2.38;;;14.90;99.90;;;;;;5072830;28;20452;-58
2022/07/27 02:24:58;;;;;;;5.57;2.35;;;14.80;99.90;;;;;;5072911;28;20405;-58
2022/07/27 02:27:24;;;;;;;9.00;2.22;;;14.80;99.90;;;;;;5073046;28;20028;-59
2022/07/27 02:29:51;;;;;;;5.03;2.10;;;14.80;99.90;;;;;;5073299;28;20043;-58
2022/07/27 02:32:17;;;;;;;6.38;2.30;;;14.70;99.90;;;;;;5072931;28;20497;-59
2022/07/27 02:34:43;;;;;;;7.30;2.20;;;14.70;99.90;;;;;;5072518;28;20028;-58
2022/07/27 02:37:08;;;;;;;5.22;2.30;;;14.70;99.90;;;;;;5072729;28;20086;-59
2022/07/27 02:39:34;;;;;;;8.13;2.70;;;14.80;99.90;;;;;;5073072;28;20020;-59
2022/07/27 02:42:01;;;;;;;7.47;2.58;;;14.70;99.90;;;;;;5072267;28;20021;-58
2022/07/27 02:44:27;;;;;;;8.02;2.35;;;14.60;99.90;;;;;;5072980;28;20587;-59
2022/07/27 02:46:53;;;;;;;3.42;2.00;;;14.50;99.90;;;;;;5072261;28;20120;-58
2022/07/27 02:49:19;;;;;;;4.43;2.25;;;14.50;99.90;;;;;;5072613;28;20029;-58
2022/07/27 02:51:47;;;;;;;5.40;2.42;;;14.50;99.90;;;;;;5072380;28;20543;-58
2022/07/27 02:54:13;;;;;;;3.95;2.20;;;14.50;99.90;;;;;;5072116;28;20389;-58
2022/07/27 02:56:38;;;;;;;8.70;2.25;;;14.40;99.90;;;;;;5072587;28;20028;-59
2022/07/27 02:59:04;;;;;;;8.18;2.45;;;14.30;99.90;;;;;;5072355;28;20439;-58
2022/07/27 03:01:30;;;;;;;8.73;2.50;;;14.30;99.90;;;;;;5072141;28;20505;-58
2022/07/27 03:03:55;;;;;;;5.88;2.42;;;14.20;99.90;;;;;;5072187;28;20016;-58
2022/07/27 03:06:21;;;;;;;7.55;3.10;;;14.30;99.90;;;;;;5072018;28;20037;-58
2022/07/27 03:08:46;;;;;;;6.03;2.70;;;14.20;99.90;;;;;;5072324;28;20033;-58
2022/07/27 03:11:14;;;;;;;4.00;2.30;;;14.30;99.90;;;;;;5072208;28;20024;-59
2022/07/27 03:13:41;;;;;;;3.13;2.22;;;14.20;99.90;;;;;;5071840;28;20023;-58
2022/07/27 03:16:06;;;;;;;5.35;2.47;;;14.20;99.90;;;;;;5072087;28;20051;-58
2022/07/27 03:18:32;;;;;;;7.70;2.63;;;14.20;99.90;;;;;;5072276;28;20029;-58
2022/07/27 03:20:58;;;;;;;6.05;2.78;;;14.20;99.90;;;;;;5071763;28;20021;-58
2022/07/27 03:23:23;;;;;;;10.35;3.33;;;14.20;99.90;;;;;;5072051;28;20032;-58
2022/07/27 03:25:49;;;;;;;8.63;2.72;;;14.10;99.90;;;;;;5071828;28;20030;-58
2022/07/27 03:28:14;;;;;;;6.15;2.90;;;14.00;99.90;;;;;;5071964;28;20035;-58
2022/07/27 03:30:40;;;;;;;6.13;2.70;;;13.80;99.90;;;;;;5071933;28;20032;-59
2022/07/27 03:33:06;;;;;;;4.10;3.00;;;13.70;99.90;;;;;;5071455;28;20021;-59
2022/07/27 03:35:32;;;;;;;8.25;2.90;;;13.50;99.90;;;;;;5071678;28;20158;-58
2022/07/27 03:37:58;;;;;;;5.93;3.28;;;13.50;99.90;;;;;;5071855;28;20020;-58
2022/07/27 03:40:24;;;;;;;8.85;3.58;;;13.40;99.90;;;;;;5071393;28;20483;-58
2022/07/27 03:42:49;;;;;;;7.68;3.80;;;13.50;99.90;;;;;;5071612;28;20078;-58
2022/07/27 03:45:15;;;;;;;6.70;3.10;;;13.50;99.90;;;;;;5071582;28;20035;-58
2022/07/27 03:47:41;;;;;;;7.38;2.83;;;13.60;99.90;;;;;;5070258;28;20580;-58
2022/07/27 03:50:06;;;;;;;8.20;3.15;;;13.70;99.90;;;;;;5070337;28;20024;-59
2022/07/27 03:52:32;;;;;;;5.82;3.40;;;13.70;99.90;;;;;;5070929;28;20083;-58
2022/07/27 03:54:58;;;;;;;8.23;3.60;;;13.80;99.90;;;;;;5071264;28;20415;-59
2022/07/27 03:57:24;;;;;;;6.13;3.70;;;13.90;99.90;;;;;;5071184;28;20042;-58
2022/07/27 03:59:50;;;;;;;10.90;4.00;;;14.00;99.90;;;;;;5071446;28;20024;-59
2022/07/27 04:02:15;;;;;;;9.13;4.43;;;14.00;99.90;;;;;;5071362;28;20388;-58
2022/07/27 04:04:41;;;;;;;7.22;4.00;;;13.90;99.90;;;;;;5071393;28;20055;-58
2022/07/27 04:07:07;;;;;;;6.22;4.20;;;13.80;99.90;;;;;;5071367;28;20036;-58
2022/07/27 04:09:33;;;;;;;11.82;5.00;;;13.60;99.90;;;;;;5071480;28;20039;-58
2022/07/27 04:11:59;;;;;;;13.10;4.70;;;13.50;99.90;;;;;;5071246;28;20037;-59
2022/07/27 04:14:24;;;;;;;5.80;3.75;;;13.50;99.90;;;;;;5069973;28;20043;-59
2022/07/27 04:16:50;;;;;;;5.78;4.40;;;13.50;99.90;;;;;;5071179;28;20111;-57
2022/07/27 04:19:15;;;;;;;8.05;4.65;;;13.70;99.90;;;;;;5071295;28;20105;-57
2022/07/27 04:21:41;;;;;;;12.02;4.57;;;13.90;99.90;;;;;;5071188;28;20016;-57
2022/07/27 04:24:07;;;;;;;7.85;4.45;;;13.80;99.90;;;;;;5070810;28;20028;-58
2022/07/27 04:26:33;;;;;;;5.47;4.70;;;13.80;99.90;;;;;;5071161;28;20473;-57
2022/07/27 04:28:58;;;;;;;9.32;4.05;;;13.70;99.90;;;;;;5070886;28;20016;-58
2022/07/27 04:31:24;;;;;;;8.75;4.82;;;13.60;99.90;;;;;;5071160;28;20032;-57
2022/07/27 04:33:50;;;;;;;9.40;5.35;;;13.60;99.90;;;;;;5071075;28;20358;-57
2022/07/27 04:36:16;;;;;;;14.60;4.97;;;13.60;99.90;;;;;;5070874;28;20470;-59
2022/07/27 04:38:41;;;;;;;10.18;4.93;;;13.80;99.90;;;;;;5071119;28;20047;-58
2022/07/27 04:41:07;;;;;;;11.90;5.32;;;13.70;99.90;;;;;;5071081;28;20487;-60
2022/07/27 04:43:32;;;;;;;14.20;5.30;;;13.70;99.90;;;;;;5071134;28;20021;-58
2022/07/27 04:46:02;;;;;;;9.38;5.40;;;13.90;99.90;;;;;;5070908;28;20102;-59
2022/07/27 04:48:27;;;;;;;11.90;4.80;;;13.90;99.90;;;;;;5069704;28;20090;-58
2022/07/27 04:50:53;;;;;;;8.85;5.20;;;14.00;99.90;;;;;;5070602;28;20036;-58
2022/07/27 04:53:19;;;;;;;8.68;4.45;;;13.90;99.90;;;;;;5070902;28;20465;-60
2022/07/27 04:55:46;;;;;;;7.95;4.25;;;13.80;99.90;;;;;;5070630;28;20393;-57
2022/07/27 04:58:12;;;;;;;9.77;4.68;;;13.80;99.90;;;;;;5071067;28;20401;-57
2022/07/27 05:00:39;;;;;;;12.05;5.13;;;13.90;99.90;;;;;;5070801;28;20389;-58
2022/07/27 05:03:05;;;;;;;11.27;4.93;;;14.00;99.90;;;;;;5070512;28;20031;-58
2022/07/27 05:05:31;;;;;;;9.25;4.72;;;14.30;99.90;;;;;;5073776;28;20035;-59
2022/07/27 05:07:56;;;;;;;11.80;5.43;;;14.40;99.90;;;;;;5075002;28;20033;-58
2022/07/27 05:10:22;;;;;;;8.68;4.85;;;14.40;99.90;;;;;;5074265;28;20474;-58
2022/07/27 05:12:48;;;;;;;8.85;4.88;;;14.50;99.90;;;;;;5073002;28;20044;-59
2022/07/27 05:15:15;;;;;;;10.65;4.75;;;14.40;99.90;;;;;;5074475;28;20043;-58
2022/07/27 05:17:41;;;;;;;9.52;4.80;;;14.60;99.90;;;;;;5073253;28;20024;-59
2022/07/27 05:20:07;;;;;;;9.52;4.63;;;14.70;99.90;;;;;;5074569;28;20035;-59
2022/07/27 05:22:33;;;;;;;10.88;4.60;;;14.60;99.90;;;;;;5073851;28;20046;-59
2022/07/27 05:24:59;;;;;;;9.55;4.03;;;14.50;99.90;;;;;;5072824;28;20393;-59
2022/07/27 05:27:24;;;;;;;10.30;4.13;;;14.50;99.90;;;;;;5073931;28;20028;-59
2022/07/27 05:29:50;;;;;;;8.73;4.07;;;14.70;99.90;;;;;;5074210;28;20066;-58
2022/07/27 05:32:16;;;;;;;7.35;4.25;;;14.70;99.90;;;;;;5074462;28;20098;-58
2022/07/27 05:34:42;;;;;;;5.65;3.67;;;14.80;99.90;;;;;;5072305;28;20033;-58
2022/07/27 05:37:08;;;;;;;6.25;4.00;;;14.90;99.90;;;;;;5073954;28;20071;-59
2022/07/27 05:39:33;;;;;;;7.65;4.18;;;15.10;99.90;;;;;;5074212;28;20422;-58
2022/07/27 05:41:59;;;;;;;11.68;4.07;;;15.30;99.90;;;;;;5073812;28;20021;-57
2022/07/27 05:44:25;;;;;;;7.05;3.72;;;15.60;99.90;;;;;;5074026;28;20027;-59
2022/07/27 05:46:50;;;;;;;8.73;3.38;;;15.60;99.90;;;;;;5073668;28;20032;-58
2022/07/27 05:49:16;;;;;;;5.68;3.40;;;15.60;99.90;;;;;;5074099;28;20017;-58
2022/07/27 05:51:42;;;;;;;4.90;3.38;;;15.80;99.90;;;;;;5074431;28;20024;-58
2022/07/27 05:54:08;;;;;;;11.18;3.67;;;15.90;99.90;;;;;;5073612;28;20024;-58
2022/07/27 05:56:34;;;;;;;9.40;3.47;;;15.70;99.90;;;;;;5073852;28;20043;-58
2022/07/27 05:59:00;;;;;;;8.25;3.80;;;15.60;99.90;;;;;;5073636;28;20532;-59
2022/07/27 06:01:26;;;;;;;9.15;3.95;;;15.60;99.90;;;;;;5073441;28;20032;-59
2022/07/27 06:03:52;;;;;;;7.75;3.72;;;15.60;99.90;;;;;;5073638;28;20029;-59
2022/07/27 06:09:02;;;;;;;16.13;4.72;;;15.80;99.90;;;;;;5073399;28;20555;-59
2022/07/27 06:11:27;;;;;;;11.50;4.00;;;15.90;99.90;;;;;;5073106;28;20392;-58
2022/07/27 06:13:54;;;;;;;9.00;3.90;;;16.00;99.90;;;;;;5073545;28;20028;-58
2022/07/27 06:16:20;;;;;;;11.63;4.13;;;16.20;99.90;;;;;;5072166;28;20036;-58
2022/07/27 06:18:46;;;;;;;10.48;4.13;;;16.30;99.90;;;;;;5073511;28;20497;-58
2022/07/27 06:21:12;;;;;;;10.27;4.15;;;16.50;99.90;;;;;;5072330;28;20114;-58
2022/07/27 06:23:37;;;;;;;10.80;3.90;;;16.70;99.90;;;;;;5073669;28;20043;-59
2022/07/27 06:26:04;;;;;;;11.55;4.10;;;16.80;99.90;;;;;;5073418;28;20045;-64
2022/07/27 06:28:30;;;;;;;8.07;2.80;;;16.80;99.90;;;;;;5072198;28;20035;-60
2022/07/27 06:30:55;;;;;;;9.55;2.90;;;16.80;99.90;;;;;;5073061;28;20098;-59
2022/07/27 06:33:26;;;;;;;9.02;2.60;;;16.90;99.90;;;;;;5071668;28;20481;-59
2022/07/27 06:35:53;;;;;;;6.35;2.80;;;16.90;99.90;;;;;;5073243;28;20043;-59
2022/07/27 06:38:20;;;;;;;5.85;2.60;;;17.10;99.90;;;;;;5073439;28;20035;-59
2022/07/27 06:40:51;;;;;;;6.55;2.60;;;17.50;99.90;;;;;;5073156;28;20085;-58
2022/07/27 06:43:24;;;;;;;3.13;2.10;;;17.70;99.90;;;;;;5072858;28;20055;-58
2022/07/27 06:45:53;;;;;;;5.32;1.98;;;17.40;99.90;;;;;;5073286;28;20028;-59
2022/07/27 06:48:20;;;;;;;5.60;2.13;;;17.40;99.90;;;;;;5072909;28;20283;-58
2022/07/27 06:50:46;;;;;;;4.63;2.03;;;17.40;99.90;;;;;;5073092;28;20431;-59
2022/07/27 06:53:12;;;;;;;7.93;2.25;;;17.40;99.90;;;;;;5071489;28;20425;-59
2022/07/27 06:55:38;;;;;;;6.03;2.38;;;17.50;99.90;;;;;;5072775;28;20033;-58
2022/07/27 06:58:04;;;;;;;5.53;1.50;;;17.70;99.90;;;;;;5072762;28;20576;-59
2022/07/27 07:00:30;;;;;;;3.45;1.35;;;18.00;99.90;;;;;;5072450;28;20028;-63
2022/07/27 07:03:03;;;;;;;4.03;1.27;;;19.00;99.90;;;;;;5072352;28;20017;-59
2022/07/27 07:05:31;;;;;;;5.82;1.30;;;20.10;99.90;;;;;;5072174;28;20032;-60
2022/07/27 07:07:57;;;;;;;5.18;1.35;;;20.80;99.90;;;;;;5072853;28;20478;-59
2022/07/27 07:10:24;;;;;;;4.57;1.25;;;20.90;99.90;;;;;;5072589;28;20078;-60
2022/07/27 07:12:54;;;;;;;5.70;1.33;;;21.10;99.90;;;;;;5072262;28;20029;-61
2022/07/27 07:15:22;;;;;;;3.28;1.10;;;21.60;99.90;;;;;;5072668;28;20444;-60
2022/07/27 07:17:48;;;;;;;4.28;1.20;;;22.70;99.90;;;;;;5071110;28;20508;-61
2022/07/27 07:20:15;;;;;;;4.47;1.05;;;22.90;99.90;;;;;;5072173;28;20048;-62
2022/07/27 07:22:40;;;;;;;5.18;1.00;;;24.10;99.90;;;;;;5071860;28;20032;-61
2022/07/27 07:25:06;;;;;;;5.40;1.00;;;25.10;99.50;;;;;;5072277;28;20421;-61
2022/07/27 07:27:32;;;;;;;3.28;1.00;;;25.50;98.20;;;;;;5071249;28;20034;-60
2022/07/27 07:29:58;;;;;;;6.47;1.00;;;26.30;96.40;;;;;;5071421;28;20096;-61
2022/07/27 07:32:25;;;;;;;3.00;0.98;;;26.60;94.90;;;;;;5071246;28;20021;-62
2022/07/27 07:34:51;;;;;;;2.53;1.05;;;26.70;94.70;;;;;;5071314;28;20021;-61
2022/07/27 07:37:18;;;;;;;4.18;0.93;;;27.40;92.80;;;;;;5071327;28;20031;-62
2022/07/27 07:39:45;;;;;;;4.05;0.70;;;26.80;91.90;;;;;;5071476;28;20393;-61
2022/07/27 07:42:11;;;;;;;2.42;0.70;;;25.30;93.80;;;;;;5071593;28;20036;-61
2022/07/27 07:44:37;;;;;;;3.65;0.88;;;24.90;94.60;;;;;;5071341;28;20580;-61
2022/07/27 07:47:03;;;;;;;3.05;0.60;;;25.20;93.80;;;;;;5070998;28;20036;-61
2022/07/27 07:49:29;;;;;;;2.25;0.73;;;26.00;92.00;;;;;;5071522;28;20036;-61
2022/07/27 07:51:54;;;;;;;3.35;0.82;;;25.30;93.00;;;;;;5071211;28;20485;-61
2022/07/27 07:54:20;;;;;;;3.95;1.05;;;25.00;94.00;;;;;;5070867;28;20115;-61
2022/07/27 07:56:45;;;;;;;2.70;0.60;;;25.20;92.30;;;;;;5071065;28;20469;-61
2022/07/27 07:59:11;;;;;;;1.75;0.60;;;25.20;91.90;;;;;;5070909;28;20102;-61
2022/07/27 08:01:37;;;;;;;2.03;0.65;;;26.10;90.50;;;;;;5071316;28;20024;-60
2022/07/27 08:04:03;;;;;;;4.32;0.60;;;26.60;87.60;;;;;;5070856;28;20021;-61
2022/07/27 08:06:28;;;;;;;2.58;0.50;;;26.40;85.20;;;;;;5071154;28;20037;-60
2022/07/27 08:08:54;;;;;;;1.60;0.68;;;25.20;89.00;;;;;;5071105;28;20032;-60
2022/07/27 08:11:20;;;;;;;4.75;0.68;;;23.90;92.10;;;;;;5070693;28;20028;-60
2022/07/27 08:13:46;;;;;;;2.72;0.60;;;24.20;91.90;;;;;;5070998;28;20366;-60
2022/07/27 08:16:12;;;;;;;3.28;0.80;;;25.30;89.60;;;;;;5070997;28;20028;-60
2022/07/27 08:18:38;;;;;;;1.95;0.60;;;25.30;88.90;;;;;;5070942;28;20036;-61
2022/07/27 08:21:03;;;;;;;3.15;0.63;;;24.80;89.00;;;;;;5070968;28;20025;-61
2022/07/27 08:23:30;;;;;;;3.47;0.75;;;24.90;90.10;;;;;;5070804;28;20025;-61
2022/07/27 08:25:56;;;;;;;1.25;0.70;;;25.40;89.20;;;;;;5070609;28;20032;-61
2022/07/27 08:28:22;;;;;;;4.05;0.65;;;26.40;86.20;;;;;;5071071;28;20147;-59
2022/07/27 08:30:48;;;;;;;2.53;0.70;;;26.70;81.60;;;;;;5071043;28;20186;-60
2022/07/27 08:33:14;;;;;;;2.30;0.63;;;27.50;81.30;;;;;;5070849;28;20024;-61
2022/07/27 08:35:39;;;;;;;2.58;0.60;;;27.80;79.40;;;;;;5070907;28;20036;-61
2022/07/27 08:38:08;;;;;;;2.40;0.50;;;28.10;78.30;;;;;;5071263;28;20379;-61
2022/07/27 08:40:34;;;;;;;1.63;0.47;;;28.60;77.30;;;;;;5073775;28;20440;-61
2022/07/27 08:43:01;;;;;;;3.20;0.90;;;28.20;77.40;;;;;;5075103;28;20021;-61
2022/07/27 08:45:27;;;;;;;2.55;1.00;;;28.90;76.90;;;;;;5074580;28;20035;-61
2022/07/27 08:47:53;;;;;;;5.43;1.02;;;28.50;77.70;;;;;;5073288;28;20108;-62
2022/07/27 08:50:23;;;;;;;3.63;1.00;;;28.60;76.00;;;;;;5074524;28;20099;-61
2022/07/27 08:52:55;;;;;;;3.22;1.17;;;28.20;76.60;;;;;;5074821;28;20251;-61
2022/07/27 08:55:22;;;;;;;3.22;0.90;;;27.00;77.70;;;;;;5074239;28;20024;-61
2022/07/27 08:57:48;;;;;;;4.35;1.10;;;25.70;80.90;;;;;;5074395;28;20047;-60
2022/07/27 09:00:15;;;;;;;4.22;1.10;;;26.30;80.30;;;;;;5074457;28;20071;-61
2022/07/27 09:02:42;;;;;;;2.70;0.90;;;26.30;79.40;;;;;;5073369;28;20025;-61
2022/07/27 09:05:08;;;;;;;6.70;0.80;;;26.60;79.20;;;;;;5074608;28;20025;-62
2022/07/27 09:07:34;;;;;;;2.25;0.88;;;27.40;76.60;;;;;;5074203;28;20028;-61
2022/07/27 09:10:00;;;;;;;2.88;1.10;;;27.20;75.60;;;;;;5072876;28;20074;-61
2022/07/27 09:12:27;;;;;;;4.30;0.90;;;27.60;74.60;;;;;;5073964;28;20036;-61
2022/07/27 09:15:04;;;;;;;1.38;0.70;;;27.60;74.50;;;;;;5073864;28;20077;-61
2022/07/27 09:17:29;;;;;;;3.35;0.52;;;28.10;72.20;;;;;;5073976;28;20127;-61
2022/07/27 09:20:02;;;;;;;2.38;0.80;;;27.20;73.80;;;;;;5074157;28;20059;-62
2022/07/27 09:22:39;;;;;;;6.45;1.48;;;26.20;76.70;;;;;;5072882;28;20033;-61
2022/07/27 09:25:06;;;;;;;3.65;1.17;;;24.80;80.60;;;;;;5073943;28;20431;-61
2022/07/27 09:27:31;;;;;;;4.70;0.98;;;23.90;83.20;;;;;;5074100;28;20408;-60
2022/07/27 09:30:06;;;;;;;3.38;1.15;;;23.10;86.30;;;;;;5072579;28;20035;-58
2022/07/27 09:32:32;;;;;;;2.30;0.77;;;22.90;89.50;;;;;;5073756;28;20435;-58
2022/07/27 09:35:12;;;;;;;3.53;0.80;;;23.70;86.10;;;;;;5073750;28;20028;-60
2022/07/27 09:37:38;;;;;;;1.60;0.75;;;25.20;81.80;;;;;;5074437;28;20048;-60
2022/07/27 09:40:15;;;;;;;3.78;0.90;;;26.60;77.00;;;;;;5073778;28;20024;-60
2022/07/27 09:42:41;;;;;;;3.58;0.90;;;26.70;75.30;;;;;;5073850;28;20258;-61
2022/07/27 09:45:34;;;;;;;4.45;0.95;;;26.20;77.70;;;;;;5073304;28;20029;-60
2022/07/27 09:48:07;;;;;;;3.10;0.80;;;26.70;75.90;;;;;;5071202;28;20119;-60
2022/07/27 09:50:33;;;;;;;4.35;0.90;;;27.10;76.00;;;;;;5073176;28;20029;-61
2022/07/27 09:53:32;;;;;;;2.10;0.63;;;28.00;74.80;;;;;;5073367;28;20397;-61
2022/07/27 09:56:04;;;;;;;1.52;0.82;;;28.20;72.70;;;;;;5039524;28;20085;-61
2022/07/27 09:58:43;;;;;;;2.17;0.77;;;28.90;68.50;;;;;;5073253;28;20102;-61
2022/07/27 10:01:21;;;;;;;3.20;0.93;;;30.30;66.10;;;;;;5073279;28;20060;-61
2022/07/27 10:03:48;;;;;;;3.40;1.10;;;30.80;64.90;;;;;;5073466;28;20056;-61
2022/07/27 10:06:15;;;;;;;3.15;1.10;;;29.60;67.20;;;;;;5072977;28;20028;-61
2022/07/27 10:08:45;;;;;;;3.97;1.10;;;29.10;66.20;;;;;;5073465;28;20074;-61
2022/07/27 10:11:12;;;;;;;1.38;0.70;;;29.30;66.50;;;;;;5073472;28;20036;-62
2022/07/27 10:13:38;;;;;;;2.85;0.60;;;30.30;64.30;;;;;;5073062;28;20119;-62
2022/07/27 10:16:06;;;;;;;2.88;1.05;;;30.60;62.50;;;;;;5072560;28;20101;-61
2022/07/27 10:18:54;;;;;;;2.80;0.88;;;30.00;61.70;;;;;;5072094;28;20047;-62
2022/07/27 10:21:22;;;;;;;2.83;0.70;;;30.30;62.30;;;;;;5072840;28;20103;-61
2022/07/27 10:23:56;;;;;;;4.05;0.80;;;30.50;60.20;;;;;;5073225;28;20033;-61
2022/07/27 10:26:25;;;;;;;3.78;1.00;;;29.60;62.90;;;;;;5072748;28;20397;-62
2022/07/27 10:28:58;;;;;;;2.78;1.00;;;27.80;65.90;;;;;;5072797;28;20386;-61
2022/07/27 10:31:28;;;;;;;3.80;0.90;;;27.10;68.70;;;;;;5072669;28;20031;-60
2022/07/27 10:33:56;;;;;;;1.65;0.80;;;26.10;71.30;;;;;;5072969;28;20021;-59
2022/07/27 10:36:22;;;;;;;5.93;1.00;;;25.20;73.80;;;;;;5073210;28;20028;-60
2022/07/27 10:38:57;;;;;;;4.70;1.10;;;24.70;74.10;;;;;;5072298;28;20103;-60
2022/07/27 10:41:39;;;;;;;1.83;0.80;;;24.30;76.40;;;;;;5072321;28;20082;-60
2022/07/27 10:44:14;;;;;;;;;;;24.20;76.70;;;;;;5072726;28;20021;-60
2022/07/27 10:47:00;;;;;;;4.20;1.10;;;23.60;78.70;;;;;;5072597;28;19958;-59
2022/07/27 10:49:28;;;;;;;4.20;1.02;;;23.60;80.20;;;;;;5072973;28;20456;-60
2022/07/27 10:51:56;;;;;;;2.40;0.88;;;25.00;78.30;;;;;;5072064;28;20033;-61
2022/07/27 10:54:33;;;;;;;2.00;0.80;;;26.20;73.40;;;;;;5072390;28;20025;-61
2022/07/27 10:57:00;;;;;;;2.15;0.93;;;26.20;71.90;;;;;;5072138;28;20040;-60
2022/07/27 10:59:43;;;;;;;4.55;1.15;;;24.80;75.00;;;;;;5072103;28;20441;-61
2022/07/27 11:02:13;;;;;;;4.40;1.20;;;24.00;78.00;;;;;;5071808;28;20017;-60
2022/07/27 11:04:50;;;;;;;3.35;1.00;;;23.70;79.20;;;;;;5071765;28;20020;-61
2022/07/27 11:07:19;;;;;;;4.47;0.80;;;23.50;79.50;;;;;;5071999;28;20065;-60
2022/07/27 11:09:47;;;;;;;2.17;1.08;;;23.50;80.30;;;;;;5072148;28;20035;-60
2022/07/27 11:12:14;;;;;;;3.95;1.15;;;23.10;81.50;;;;;;5072350;28;20020;-61
2022/07/27 11:14:46;;;;;;;3.70;1.10;;;22.90;83.40;;;;;;5071907;28;20040;-60
2022/07/27 11:17:13;;;;;;;5.57;1.08;;;22.80;83.40;;;;;;5071599;28;20034;-60
2022/07/27 11:19:38;;;;;;;4.22;1.10;;;22.90;83.80;;;;;;5071917;28;20024;-60
2022/07/27 11:22:04;;;;;;;2.53;0.95;;;23.00;83.60;;;;;;5070604;28;20407;-60
2022/07/27 11:24:32;;;;;;;4.07;1.10;;;23.30;83.10;;;;;;5071830;28;20455;-60
2022/07/27 11:26:58;;;;;;;3.85;1.05;;;23.50;82.20;;;;;;5071397;28;20028;-60
2022/07/27 11:29:24;;;;;;;4.18;0.90;;;23.60;82.10;;;;;;5071697;28;20070;-60
2022/07/27 11:31:53;;;;;;;2.63;0.68;;;23.70;82.30;;;;;;5070309;28;20040;-60
2022/07/27 11:34:46;;;;;;;9.07;1.23;;;23.60;83.40;;;;;;5071431;28;20031;-60
2022/07/27 11:37:18;;;;;;;4.35;0.80;;;23.90;83.70;;;;;;5068756;28;20548;-60
2022/07/27 11:39:48;;;;;;;4.75;1.00;;;24.30;82.30;;;;;;5071582;28;20025;-60
2022/07/27 11:42:17;;;;;;;3.00;0.82;;;24.00;81.20;;;;;;5070213;28;20028;-60
2022/07/27 11:44:44;;;;;;;2.95;0.90;;;23.80;82.20;;;;;;5071260;28;20025;-61
2022/07/27 11:47:16;;;;;;;5.30;0.93;;;23.60;83.10;;;;;;5070060;28;20066;-60
2022/07/27 11:49:41;;;;;;;3.90;1.23;;;23.40;84.50;;;;;;5071420;28;20556;-60
2022/07/27 11:52:10;;;;;;;2.83;1.00;;;23.20;85.70;;;;;;5071270;28;20108;-60
2022/07/27 11:54:40;;;;;;;3.97;1.30;;;23.10;86.50;;;;;;5071295;28;20557;-60
2022/07/27 11:57:17;;;;;;;5.22;1.20;;;23.20;87.10;;;;;;5071571;28;20047;-60
2022/07/27 11:59:44;;;;;;;7.88;1.30;;;23.40;86.80;;;;;;5071343;28;20477;-60
2022/07/27 12:02:18;;;;;;;4.07;1.48;;;23.30;87.00;;;;;;5069670;28;20443;-60
2022/07/27 12:04:46;;;;;;;2.45;1.02;;;23.90;85.20;;;;;;5070935;28;20028;-60
2022/07/27 12:07:28;;;;;;;4.55;1.00;;;24.00;83.40;;;;;;5070878;28;20485;-61
2022/07/27 12:09:58;;;;;;;4.55;1.48;;;24.30;82.40;;;;;;5071079;28;20028;-60
2022/07/27 12:12:28;;;;;;;3.03;1.20;;;24.70;80.90;;;;;;5071238;28;20116;-61
2022/07/27 12:15:02;;;;;;;2.85;1.02;;;24.70;80.20;;;;;;5070310;28;20039;-60
2022/07/27 12:17:32;;;;;;;4.63;1.05;;;24.80;79.80;;;;;;5070752;28;20060;-60
2022/07/27 12:19:59;;;;;;;4.07;1.23;;;25.40;78.60;;;;;;5071743;28;20055;-60
2022/07/27 12:22:37;;;;;;;3.08;1.00;;;26.00;76.10;;;;;;5071090;28;20090;-61
2022/07/27 12:25:07;;;;;;;4.25;1.20;;;26.00;74.10;;;;;;5070968;28;20024;-62
2022/07/27 12:27:34;;;;;;;7.28;1.30;;;27.60;71.30;;;;;;5070864;28;20104;-61
2022/07/27 12:30:14;;;;;;;2.15;0.80;;;28.60;67.90;;;;;;5070879;28;20024;-62
2022/07/27 12:32:42;;;;;;;3.75;1.10;;;28.90;66.40;;;;;;5071076;28;20476;-61
2022/07/27 12:35:16;;;;;;;3.08;0.90;;;28.40;65.30;;;;;;5070286;28;20047;-61
2022/07/27 12:37:42;;;;;;;1.40;0.80;;;28.90;63.90;;;;;;5071357;28;20473;-61
2022/07/27 12:40:16;;;;;;;1.73;0.70;;;29.00;64.30;;;;;;5070777;28;20040;-61
2022/07/27 12:42:42;;;;;;;3.30;0.98;;;28.50;64.50;;;;;;5070874;28;20021;-61
2022/07/27 12:45:17;;;;;;;2.60;0.90;;;28.90;64.90;;;;;;5070463;28;20032;-61
2022/07/27 12:47:43;;;;;;;4.57;1.30;;;29.60;62.80;;;;;;5070329;28;20054;-61
2022/07/27 12:50:15;;;;;;;4.05;1.08;;;30.50;62.20;;;;;;5070768;28;20493;-62